logo
Search for airport 
image banner adimage banner adimage banner ad
image banner ad

LFQA - Reims Prunay

Located in Reims, France

ICAO - LFQA, IATA -

Data provided by Airmate  

General information

Coordinates: N49°12'31" E4°9'24"
Elevation is 313 feet MSL.
Magnetic variation is 1.55° East
Rated:
View ratings:
[VIEW]
View others Airports in Champagne-Ardenne

Operational data

Special qualification required
Current time UTC:
Current local time:
Weather
METAR: LFQA 231630Z AUTO 29010KT 250V320 9999 BKN019 BKN028 BKN036 17/13 Q1002
View NOTAMs / SUP AIP / TFR affecting this airport [VIEW]
Communications frequencies: [VIEW]

Runways:

RWY identifierQFULength (ft)Width (ft)SurfaceLDA (ft)
07R66°3268256GRASS3068
25L246°3268256GRASS2736
0766°377398ASPH3100
25246°377398ASPH2608

Airport contact information

Address: Reims France

Handlers

Societe D'exploitation De Reims Aeroport

Societe D'exploitation De Reims Aeroport

Other aviation service providers

Aviation club (not for profit)

Aéroclub de Champagne

Aéroclub de Champagne
accraf@orange.fr+33326491105

Aéroclub du CRNA-Est

Aéroclub du CRNA-Est

Champagne Ardenne Aerobatic

Champagne Ardenne Aerobatic

Reims Voltige

Reims Voltige

Club Rsa Ins'air Reims

Club Rsa Ins'air Reims
dkapral@free.fr0612189216

Satellite view of LFQA